Roebuck Plaza, Alabama
Current Conditions -  °F | °C
As of 3:53 AM on Sunday 21 Dec 2014 (Local Time) from KBHM Reporting Station
Overcast Overcast  
Wind Chill: 42°   Ceiling: 900
Heat Index: 42°   Visibility: 7mi
Dew Point: 38°   Wind: 3mph
Humidity: 85%   Direction: 50°NE
Pressure: 30.2"   Gusts: NA
Location:  33.6283°N, 86.6434°W
Report Text: KBHM 210953Z 05003KT 7SM OVC009 06/03 A3020 RMK AO2 SLP227 T00560033
Loading
Personal Weather Stations






























Interactive Weather Map New forecast layout! Learn more

10-Day Weather Forecast

Advertisements
Track Severe Weather on mobile